Terminal Aerodrome Forecast
Issued by NWS State College, PA

Home | Current Version | Previous Version | Text Only | Print | Product List | Glossary On
Versions: 1 2 3 4 5 6 7 8 9 10 11 12 13 14 15 16 17 18 19 20 21 22 23 24 25 26 27 28 29 30 31 32 33
000
FTUS41 KCTP 231430 AAD
TAFIPT
TAF AMD
KIPT 231430Z 2315/2412 11003KT 1/4SM -RA FG FEW006 OVC030
      WS020/24035KT
      TEMPO 2315/2316 1SM -RA BR BKN020 OVC035
     FM231600 26015G30KT P6SM VCSH SCT007 BKN025 OVC050
     FM240300 27015KT P6SM BKN050=

USA.gov is the U.S. government's official web portal to all federal, state and local government web resources and services.